createdAt,value
2018-04-02T00:00:54.411Z,26.07
2018-04-02T00:03:23.923Z,26.04
2018-04-02T00:05:53.225Z,26.00
2018-04-02T00:08:22.375Z,25.97
2018-04-02T00:10:51.320Z,25.93
2018-04-02T00:13:20.560Z,25.86
2018-04-02T00:15:49.775Z,25.80
2018-04-02T00:18:19.049Z,25.55
2018-04-02T00:20:48.238Z,25.68
2018-04-02T00:23:17.469Z,25.73
2018-04-02T00:25:46.609Z,25.75
2018-04-02T00:28:15.571Z,25.78
2018-04-02T00:30:44.244Z,25.81
2018-04-02T00:33:13.547Z,25.78
2018-04-02T00:35:42.665Z,25.73
2018-04-02T00:38:11.946Z,25.76
2018-04-02T00:40:41.212Z,25.70
2018-04-02T00:43:11.454Z,25.70
2018-04-02T00:45:40.830Z,25.72
2018-04-02T00:48:09.759Z,25.67
2018-04-02T00:50:38.975Z,25.59
2018-04-02T00:53:08.084Z,25.78
2018-04-02T00:55:37.099Z,25.85
2018-04-02T00:58:06.593Z,25.82
2018-04-02T01:00:35.986Z,25.88
2018-04-02T01:03:05.299Z,25.91
2018-04-02T01:05:34.522Z,26.00
2018-04-02T01:08:03.707Z,25.98
2018-04-02T01:10:33.143Z,26.04
2018-04-02T01:13:02.365Z,26.13
2018-04-02T01:15:31.528Z,26.09
2018-04-02T01:18:00.893Z,26.15
2018-04-02T01:20:30.359Z,26.22
2018-04-02T01:22:59.414Z,26.33
2018-04-02T01:25:28.973Z,26.31
2018-04-02T01:27:58.317Z,26.52
2018-04-02T01:30:27.191Z,26.45
2018-04-02T01:32:56.571Z,26.74
2018-04-02T01:35:25.767Z,26.72
2018-04-02T01:37:55.331Z,26.86
2018-04-02T01:40:24.521Z,27.12
2018-04-02T01:42:53.736Z,27.34
2018-04-02T01:45:23.091Z,27.29
2018-04-02T01:47:52.319Z,27.43
2018-04-02T01:50:21.709Z,27.72
2018-04-02T01:52:50.839Z,27.89
2018-04-02T01:55:20.133Z,27.96
2018-04-02T01:57:49.423Z,28.23
2018-04-02T02:00:18.461Z,28.37
2018-04-02T02:02:47.522Z,28.23
2018-04-02T02:05:16.570Z,28.42
2018-04-02T02:07:45.954Z,28.59
2018-04-02T02:10:14.886Z,28.99
2018-04-02T02:12:44.473Z,29.12
2018-04-02T02:15:16.820Z,29.14
2018-04-02T02:17:46.103Z,29.43
2018-04-02T02:20:15.554Z,29.61
2018-04-02T02:22:45.152Z,29.94
2018-04-02T02:25:14.177Z,30.36
2018-04-02T02:27:43.159Z,30.16
2018-04-02T02:30:12.478Z,30.31
2018-04-02T02:32:41.741Z,30.36
2018-04-02T02:35:10.948Z,30.58
2018-04-02T02:37:40.095Z,30.35
2018-04-02T02:40:09.452Z,30.48
2018-04-02T02:42:38.855Z,29.96
2018-04-02T02:45:08.291Z,30.63
2018-04-02T02:47:37.748Z,30.70
2018-04-02T02:50:06.981Z,30.88
2018-04-02T02:52:36.289Z,30.93
2018-04-02T02:55:05.386Z,30.89
2018-04-02T02:57:34.596Z,31.21
2018-04-02T03:00:03.723Z,31.78
2018-04-02T03:02:33.131Z,31.40
2018-04-02T03:05:02.326Z,31.07
2018-04-02T03:07:31.965Z,31.33
2018-04-02T03:10:01.157Z,31.07
2018-04-02T03:12:30.240Z,31.92
2018-04-02T03:14:59.519Z,32.00
2018-04-02T03:17:28.980Z,31.78
2018-04-02T03:19:58.353Z,32.64
2018-04-02T03:22:27.339Z,31.86
2018-04-02T03:24:57.012Z,31.93
2018-04-02T03:27:26.333Z,32.69
2018-04-02T03:29:55.375Z,33.49
2018-04-02T03:32:24.815Z,33.48
2018-04-02T03:34:54.046Z,33.61
2018-04-02T03:37:23.066Z,32.88
2018-04-02T03:39:52.693Z,33.54
2018-04-02T03:42:21.760Z,33.16
2018-04-02T03:44:51.073Z,32.47
2018-04-02T03:47:20.297Z,33.38
2018-04-02T03:49:49.941Z,34.04
2018-04-02T03:52:19.252Z,33.17
2018-04-02T03:54:48.730Z,33.64
2018-04-02T03:57:18.153Z,34.28
2018-04-02T03:59:47.787Z,34.51
2018-04-02T04:02:16.785Z,34.09
2018-04-02T04:04:45.900Z,34.84
2018-04-02T04:07:15.188Z,34.91
2018-04-02T04:09:44.364Z,35.43
2018-04-02T04:12:13.139Z,35.06
2018-04-02T04:14:42.296Z,35.28
2018-04-02T04:17:12.477Z,35.55
2018-04-02T04:19:41.832Z,35.71
2018-04-02T04:22:11.229Z,35.09
2018-04-02T04:24:45.842Z,35.60
2018-04-02T04:27:15.923Z,35.69
2018-04-02T04:29:49.996Z,35.55
2018-04-02T04:32:19.051Z,35.87
2018-04-02T04:34:48.190Z,36.40
2018-04-02T04:37:17.664Z,35.77
2018-04-02T04:39:46.701Z,36.48
2018-04-02T04:42:15.642Z,36.54
2018-04-02T04:44:45.004Z,36.31
2018-04-02T04:47:14.310Z,36.08
2018-04-02T04:49:43.309Z,35.99
2018-04-02T04:52:12.252Z,36.15
2018-04-02T04:54:41.506Z,36.49
2018-04-02T04:57:10.473Z,36.53
2018-04-02T04:59:39.456Z,35.92
2018-04-02T05:02:08.368Z,36.17
2018-04-02T05:04:37.471Z,35.99
2018-04-02T05:07:06.334Z,35.94
2018-04-02T05:09:35.355Z,36.11
2018-04-02T05:12:04.671Z,37.06
2018-04-02T05:14:33.854Z,36.74
2018-04-02T05:17:04.361Z,37.33
2018-04-02T05:19:34.023Z,36.99
2018-04-02T05:22:04.005Z,37.35
2018-04-02T05:24:34.499Z,36.79
2018-04-02T05:27:03.520Z,36.23
2018-04-02T05:29:33.007Z,37.02
2018-04-02T05:32:02.334Z,37.39
2018-04-02T05:34:31.731Z,36.92
2018-04-02T05:37:00.918Z,37.33
2018-04-02T05:39:30.608Z,36.79
2018-04-02T05:41:59.701Z,36.88
2018-04-02T05:44:30.729Z,36.15
2018-04-02T05:46:59.918Z,37.20
2018-04-02T05:49:29.096Z,36.83
2018-04-02T05:51:59.073Z,36.19
2018-04-02T05:54:28.159Z,37.34
2018-04-02T05:56:57.364Z,37.44
2018-04-02T05:59:26.743Z,37.90
2018-04-02T06:01:56.051Z,37.40
2018-04-02T06:04:25.273Z,37.79
2018-04-02T06:06:55.940Z,37.39
2018-04-02T06:09:26.963Z,37.86
2018-04-02T06:11:58.286Z,37.02
2018-04-02T06:14:33.049Z,37.64
2018-04-02T06:17:04.436Z,36.53
2018-04-02T06:19:34.090Z,37.83
2018-04-02T06:22:05.034Z,38.43
2018-04-02T06:24:34.588Z,37.65
2018-04-02T06:27:04.354Z,38.02
2018-04-02T06:29:33.585Z,38.67
2018-04-02T06:32:03.377Z,38.31
2018-04-02T06:34:32.690Z,38.12
2018-04-02T06:37:02.279Z,37.16
2018-04-02T06:39:31.307Z,38.13
2018-04-02T06:42:00.392Z,38.43
2018-04-02T06:44:29.303Z,38.40
2018-04-02T06:46:58.484Z,38.37
2018-04-02T06:49:28.166Z,38.61
2018-04-02T06:51:57.294Z,38.23
2018-04-02T06:54:26.716Z,38.16
2018-04-02T06:56:56.137Z,37.75
2018-04-02T06:59:25.412Z,37.54
2018-04-02T07:01:54.885Z,38.03
2018-04-02T07:04:30.729Z,38.06
2018-04-02T07:07:00.327Z,37.67
2018-04-02T07:09:29.724Z,37.58
2018-04-02T07:11:58.507Z,37.37
2018-04-02T07:14:27.594Z,37.93
2018-04-02T07:16:56.523Z,38.30
2018-04-02T07:19:25.487Z,38.08
2018-04-02T07:21:54.690Z,38.05
2018-04-02T07:24:23.914Z,38.15
2018-04-02T07:26:52.959Z,38.05
2018-04-02T07:29:21.786Z,37.87
2018-04-02T07:31:50.785Z,37.89
2018-04-02T07:34:20.114Z,37.67
2018-04-02T07:36:49.485Z,38.02
2018-04-02T07:39:18.399Z,38.02
2018-04-02T07:41:47.892Z,37.58
2018-04-02T07:44:16.835Z,38.00
2018-04-02T07:46:46.186Z,37.84
2018-04-02T07:49:15.757Z,37.67
2018-04-02T07:51:45.069Z,37.89
2018-04-02T07:54:13.815Z,38.00
2018-04-02T07:56:43.015Z,38.32
2018-04-02T07:59:12.282Z,38.17
2018-04-02T08:01:41.426Z,38.36
2018-04-02T08:04:10.898Z,38.44
2018-04-02T08:06:40.142Z,38.38
2018-04-02T08:09:09.324Z,38.77
2018-04-02T08:11:38.780Z,38.32
2018-04-02T08:14:08.396Z,38.14
2018-04-02T08:16:39.454Z,38.32
2018-04-02T08:19:09.471Z,38.44
2018-04-02T08:21:41.616Z,38.94
2018-04-02T08:24:13.040Z,38.71
2018-04-02T08:26:47.242Z,38.50
2018-04-02T08:29:16.995Z,38.72
2018-04-02T08:31:46.546Z,38.47
2018-04-02T08:34:15.841Z,38.41
2018-04-02T08:36:45.963Z,38.45
2018-04-02T08:39:15.148Z,38.08
2018-04-02T08:41:44.539Z,36.97
2018-04-02T08:44:14.227Z,36.80
2018-04-02T08:46:43.533Z,37.33
2018-04-02T08:49:12.922Z,37.18
2018-04-02T08:51:42.557Z,37.37
2018-04-02T08:54:12.531Z,37.55
2018-04-02T08:56:43.640Z,37.73
2018-04-02T08:59:13.099Z,37.42
2018-04-02T09:01:43.499Z,37.50
2018-04-02T09:04:14.141Z,37.10
2018-04-02T09:06:46.628Z,36.94
2018-04-02T09:09:15.790Z,37.59
2018-04-02T09:11:46.028Z,37.42
2018-04-02T09:14:15.875Z,37.54
2018-04-02T09:16:46.316Z,37.53
2018-04-02T09:19:16.318Z,37.24
2018-04-02T09:21:48.931Z,37.03
2018-04-02T09:24:21.446Z,37.22
2018-04-02T09:26:50.938Z,37.01
2018-04-02T09:29:20.314Z,36.64
2018-04-02T09:31:50.139Z,37.04
2018-04-02T09:34:19.446Z,37.06
2018-04-02T09:36:48.584Z,36.88
2018-04-02T09:39:17.916Z,36.52
2018-04-02T09:41:47.300Z,36.43
2018-04-02T09:44:18.695Z,36.63
2018-04-02T09:46:49.640Z,36.81
2018-04-02T09:49:20.886Z,36.80
2018-04-02T09:54:30.760Z,37.16
2018-04-02T09:57:00.968Z,37.28
2018-04-02T09:59:30.270Z,37.37
2018-04-02T10:01:59.406Z,37.17
2018-04-02T10:04:33.045Z,36.81
2018-04-02T10:07:02.209Z,37.09
2018-04-02T10:09:31.937Z,37.11
2018-04-02T10:12:01.115Z,36.91
2018-04-02T10:14:31.443Z,36.88
2018-04-02T10:17:00.733Z,37.05
2018-04-02T10:19:30.372Z,36.94
2018-04-02T10:21:59.699Z,36.97
2018-04-02T10:24:29.052Z,37.02
2018-04-02T10:26:57.912Z,36.93
2018-04-02T10:29:26.641Z,37.02
2018-04-02T10:31:56.844Z,37.03
2018-04-02T10:34:26.579Z,36.78
2018-04-02T10:36:56.309Z,36.89
2018-04-02T10:39:25.616Z,36.81
2018-04-02T10:41:54.780Z,36.84
2018-04-02T10:44:24.213Z,36.65
2018-04-02T10:46:53.385Z,36.77
2018-04-02T10:49:22.715Z,36.74
2018-04-02T10:51:54.513Z,36.85
2018-04-02T10:54:23.962Z,36.71
2018-04-02T10:56:53.167Z,36.44
2018-04-02T10:59:23.723Z,36.51
2018-04-02T11:01:58.923Z,36.43
2018-04-02T11:04:29.945Z,36.34
2018-04-02T11:07:02.706Z,36.37
2018-04-02T11:09:33.788Z,36.35
2018-04-02T11:12:06.218Z,36.30
2018-04-02T11:14:35.291Z,36.32
2018-04-02T11:17:04.576Z,36.32
2018-04-02T11:19:34.102Z,36.24
2018-04-02T11:22:03.409Z,36.18
2018-04-02T11:24:32.596Z,36.11
2018-04-02T11:27:01.966Z,36.06
2018-04-02T11:29:31.186Z,36.04
2018-04-02T11:32:00.632Z,35.95
2018-04-02T11:34:29.692Z,35.92
2018-04-02T11:36:58.915Z,35.85
2018-04-02T11:39:28.178Z,35.78
2018-04-02T11:41:57.454Z,35.79
2018-04-02T11:44:26.544Z,35.74
2018-04-02T11:46:55.655Z,35.71
2018-04-02T11:49:27.614Z,35.69
2018-04-02T11:51:59.216Z,35.63
2018-04-02T11:54:30.448Z,35.51
2018-04-02T11:57:00.382Z,35.49
2018-04-02T11:59:33.800Z,35.45
2018-04-02T12:02:03.169Z,35.39
2018-04-02T12:04:32.246Z,35.34
2018-04-02T12:07:01.587Z,35.31
2018-04-02T12:09:31.139Z,35.30
2018-04-02T12:12:01.880Z,35.25
2018-04-02T12:14:31.135Z,35.24
2018-04-02T12:17:00.628Z,35.21
2018-04-02T12:19:29.679Z,35.16
2018-04-02T12:21:59.438Z,35.13
2018-04-02T12:24:28.915Z,35.05
2018-04-02T12:26:58.763Z,35.00
2018-04-02T12:29:28.769Z,34.98
2018-04-02T12:31:58.996Z,34.86
2018-04-02T12:34:28.633Z,34.82
2018-04-02T12:36:58.962Z,34.76
2018-04-02T12:39:28.121Z,34.72
2018-04-02T12:41:57.629Z,34.64
2018-04-02T12:44:27.151Z,34.61
2018-04-02T12:46:57.038Z,34.56
2018-04-02T12:49:31.869Z,34.54
2018-04-02T12:52:01.587Z,34.43
2018-04-02T12:54:30.907Z,34.37
2018-04-02T12:57:00.078Z,34.35
2018-04-02T12:59:30.806Z,34.26
2018-04-02T13:01:59.927Z,34.20
2018-04-02T13:04:29.279Z,34.18
2018-04-02T13:06:58.699Z,34.12
2018-04-02T13:09:28.086Z,34.07
2018-04-02T13:11:57.533Z,34.02
2018-04-02T13:14:26.815Z,33.98
2018-04-02T13:16:56.618Z,33.90
2018-04-02T13:19:26.664Z,33.88
2018-04-02T13:21:57.207Z,33.80
2018-04-02T13:24:26.541Z,33.74
2018-04-02T13:26:56.016Z,33.67
2018-04-02T13:29:25.915Z,33.63
2018-04-02T13:31:55.573Z,33.55
2018-04-02T13:34:24.534Z,33.50
2018-04-02T13:36:54.542Z,33.45
2018-04-02T13:39:23.796Z,33.44
2018-04-02T13:41:52.857Z,33.40
2018-04-02T13:44:22.102Z,33.33
2018-04-02T13:46:51.611Z,33.29
2018-04-02T13:49:20.505Z,33.24
2018-04-02T13:51:49.435Z,33.16
2018-04-02T13:54:18.677Z,33.16
2018-04-02T13:56:47.605Z,33.04
2018-04-02T13:59:16.516Z,33.05
2018-04-02T14:01:45.834Z,33.01
2018-04-02T14:04:15.042Z,32.97
2018-04-02T14:06:44.438Z,32.93
2018-04-02T14:09:13.912Z,32.90
2018-04-02T14:11:43.265Z,32.81
2018-04-02T14:14:12.520Z,32.78
2018-04-02T14:16:41.522Z,32.74
2018-04-02T14:19:10.641Z,32.69
2018-04-02T14:21:40.103Z,32.64
2018-04-02T14:24:09.437Z,32.64
2018-04-02T14:26:38.606Z,32.56
2018-04-02T14:29:08.144Z,32.53
2018-04-02T14:31:37.548Z,32.46
2018-04-02T14:34:06.522Z,32.43
2018-04-02T14:36:35.830Z,32.38
2018-04-02T14:39:05.339Z,32.27
2018-04-02T14:41:34.496Z,32.25
2018-04-02T14:44:04.289Z,32.15
2018-04-02T14:46:33.771Z,32.19
2018-04-02T14:49:02.763Z,32.22
2018-04-02T14:51:32.650Z,32.10
2018-04-02T14:54:02.197Z,32.00
2018-04-02T14:56:31.732Z,31.91
2018-04-02T14:59:00.967Z,32.00
2018-04-02T15:01:30.204Z,32.02
2018-04-02T15:03:59.135Z,32.00
2018-04-02T15:06:28.679Z,31.98
2018-04-02T15:08:57.729Z,31.85
2018-04-02T15:11:27.134Z,31.84
2018-04-02T15:13:56.377Z,31.91
2018-04-02T15:16:26.014Z,31.90
2018-04-02T15:18:57.023Z,31.75
2018-04-02T15:21:26.376Z,31.82
2018-04-02T15:23:55.356Z,31.86
2018-04-02T15:26:24.851Z,31.82
2018-04-02T15:28:53.990Z,31.84
2018-04-02T15:31:23.962Z,31.75
2018-04-02T15:33:52.734Z,31.78
2018-04-02T15:36:21.415Z,31.60
2018-04-02T15:38:51.789Z,31.56
2018-04-02T15:41:20.877Z,31.46
2018-04-02T15:43:49.944Z,31.51
2018-04-02T15:46:19.263Z,31.48
2018-04-02T15:48:48.188Z,31.46
2018-04-02T15:51:17.383Z,31.39
2018-04-02T15:53:46.493Z,31.42
2018-04-02T15:56:15.538Z,31.38
2018-04-02T15:58:45.014Z,31.31
2018-04-02T16:01:14.300Z,31.33
2018-04-02T16:03:43.627Z,31.27
2018-04-02T16:06:13.087Z,31.27
2018-04-02T16:08:42.286Z,31.18
